createdAt,value
2023-01-13T00:02:25.646Z,39.70
2023-01-13T00:05:31.237Z,39.67
2023-01-13T00:08:36.602Z,43.92
2023-01-13T00:11:42.601Z,46.17
2023-01-13T00:14:47.887Z,46.60
2023-01-13T00:17:53.123Z,50.20
2023-01-13T00:21:06.736Z,43.72
2023-01-13T00:24:12.146Z,44.60
2023-01-13T00:27:17.057Z,43.13
2023-01-13T00:30:22.419Z,41.38
2023-01-13T00:33:27.507Z,41.83
2023-01-13T00:36:33.161Z,39.53
2023-01-13T00:39:39.158Z,36.15
2023-01-13T00:43:23.548Z,40.20
2023-01-13T00:46:28.865Z,37.97
2023-01-13T00:49:34.328Z,45.28
2023-01-13T00:52:42.011Z,42.58
2023-01-13T00:55:47.728Z,42.80
2023-01-13T00:58:53.421Z,48.00
2023-01-13T01:01:58.926Z,43.67
2023-01-13T01:05:04.405Z,45.05
2023-01-13T01:08:10.153Z,40.33
2023-01-13T01:11:18.793Z,45.80
2023-01-13T01:14:24.255Z,39.83
2023-01-13T01:17:29.462Z,41.38
2023-01-13T01:20:35.147Z,45.95
2023-01-13T01:23:41.235Z,45.65
2023-01-13T01:26:46.780Z,38.10
2023-01-13T01:29:52.150Z,41.42
2023-01-13T01:32:57.690Z,41.65
2023-01-13T01:36:05.189Z,40.50
2023-01-13T01:39:10.947Z,40.53
2023-01-13T01:42:36.115Z,45.42
2023-01-13T01:45:41.435Z,39.85
2023-01-13T01:48:46.906Z,40.05
2023-01-13T01:52:12.269Z,42.08
2023-01-13T01:55:22.305Z,46.92
2023-01-13T01:58:38.026Z,38.60
2023-01-13T02:01:44.705Z,42.42
2023-01-13T02:04:56.408Z,44.35
2023-01-13T02:08:02.768Z,43.72
2023-01-13T02:11:28.713Z,47.25
2023-01-13T02:14:34.717Z,48.10
2023-01-13T02:17:48.824Z,44.95
2023-01-13T02:21:19.368Z,47.53
2023-01-13T02:25:07.486Z,42.85
2023-01-13T02:28:37.865Z,42.08
2023-01-13T02:31:48.056Z,38.58
2023-01-13T02:35:15.068Z,46.55
2023-01-13T02:38:29.247Z,47.35
2023-01-13T02:41:57.331Z,43.17
2023-01-13T02:45:35.706Z,43.20
2023-01-13T02:48:45.058Z,43.10
2023-01-13T02:51:53.618Z,42.00
2023-01-13T02:55:09.360Z,40.38
2023-01-13T02:58:20.442Z,44.20
2023-01-13T03:01:26.121Z,45.30
2023-01-13T03:04:50.563Z,39.83
2023-01-13T03:08:16.000Z,44.28
2023-01-13T03:11:22.193Z,38.83
2023-01-13T03:14:46.167Z,40.50
2023-01-13T03:18:28.201Z,40.88
2023-01-13T03:21:48.087Z,42.58
2023-01-13T03:25:18.674Z,42.10
2023-01-13T03:28:32.328Z,44.13
2023-01-13T03:31:47.390Z,43.47
2023-01-13T03:35:00.409Z,52.45
2023-01-13T03:38:12.899Z,38.60
2023-01-13T03:44:39.095Z,45.75
2023-01-13T03:47:57.658Z,40.70
2023-01-13T03:51:08.741Z,46.05
2023-01-13T03:54:16.138Z,40.38
2023-01-13T03:57:27.063Z,39.70
2023-01-13T04:00:39.303Z,45.58
2023-01-13T04:07:12.819Z,44.58
2023-01-13T04:10:26.882Z,43.38
2023-01-13T04:13:37.762Z,41.53
2023-01-13T04:16:43.082Z,39.55
2023-01-13T04:19:48.847Z,42.30
2023-01-13T04:22:54.336Z,51.13
2023-01-13T04:26:00.262Z,38.60
2023-01-13T04:29:05.762Z,47.38
2023-01-13T04:32:11.415Z,41.00
2023-01-13T04:35:17.525Z,38.88
2023-01-13T04:38:23.145Z,49.60
2023-01-13T04:41:28.802Z,42.95
2023-01-13T04:44:36.027Z,39.60
2023-01-13T04:47:44.617Z,35.42
2023-01-13T04:50:50.346Z,42.08
2023-01-13T04:53:55.699Z,38.95
2023-01-13T04:57:01.301Z,39.85
2023-01-13T05:00:08.198Z,37.60
2023-01-13T05:03:13.743Z,43.58
2023-01-13T05:06:19.271Z,40.20
2023-01-13T05:09:24.761Z,170.27
2023-01-13T05:12:49.018Z,49.60
2023-01-13T05:16:13.364Z,41.40
2023-01-13T05:19:18.832Z,39.17
2023-01-13T05:22:42.834Z,38.47
2023-01-13T05:25:48.853Z,38.65
2023-01-13T05:28:54.395Z,46.28
2023-01-13T05:32:03.088Z,53.65
2023-01-13T05:35:08.981Z,42.60
2023-01-13T05:38:16.104Z,40.78
2023-01-13T05:41:39.905Z,37.15
2023-01-13T05:44:45.688Z,37.03
2023-01-13T05:47:51.086Z,39.60
2023-01-13T05:50:56.952Z,45.92
2023-01-13T05:54:02.639Z,41.28
2023-01-13T05:57:08.704Z,46.85
2023-01-13T06:00:14.876Z,42.47
2023-01-13T06:03:20.596Z,40.35
2023-01-13T06:06:26.335Z,50.55
2023-01-13T06:09:31.706Z,45.95
2023-01-13T06:12:37.537Z,49.90
2023-01-13T06:15:43.212Z,45.50
2023-01-13T06:18:48.399Z,49.22
2023-01-13T06:21:58.133Z,52.35
2023-01-13T06:25:04.111Z,48.25
2023-01-13T06:28:09.731Z,54.50
2023-01-13T06:31:15.372Z,53.38
2023-01-13T06:34:21.385Z,77.72
2023-01-13T06:37:28.817Z,48.63
2023-01-13T06:40:35.468Z,48.33
2023-01-13T06:43:41.727Z,48.05
2023-01-13T06:46:48.049Z,55.60
2023-01-13T06:49:53.883Z,44.72
2023-01-13T06:52:59.617Z,45.95
2023-01-13T06:56:05.193Z,44.63
2023-01-13T06:59:10.716Z,49.95
2023-01-13T07:02:16.674Z,46.60
2023-01-13T07:05:22.846Z,42.13
2023-01-13T07:08:27.791Z,50.85
2023-01-13T07:11:33.376Z,45.72
2023-01-13T07:14:57.873Z,38.15
2023-01-13T07:18:03.966Z,44.45
2023-01-13T07:21:13.492Z,39.97
2023-01-13T07:24:19.876Z,41.22
2023-01-13T07:27:26.065Z,38.97
2023-01-13T07:30:31.669Z,46.28
2023-01-13T07:33:37.724Z,54.60
2023-01-13T07:36:43.649Z,50.45
2023-01-13T07:39:50.650Z,48.55
2023-01-13T07:43:14.202Z,55.80
2023-01-13T07:46:19.823Z,49.78
2023-01-13T07:49:25.237Z,66.40
2023-01-13T07:52:30.668Z,68.32
2023-01-13T07:55:42.077Z,81.70
2023-01-13T07:58:51.084Z,60.45
2023-01-13T08:01:56.650Z,50.50
2023-01-13T08:05:02.313Z,51.40
2023-01-13T08:08:08.311Z,51.80
2023-01-13T08:11:13.907Z,66.18
2023-01-13T08:14:19.598Z,111.40
2023-01-13T08:17:25.463Z,64.32
2023-01-13T08:20:33.086Z,57.58
2023-01-13T08:23:39.807Z,60.75
2023-01-13T08:26:45.974Z,51.35
2023-01-13T08:29:51.589Z,48.47
2023-01-13T08:32:57.340Z,46.55
2023-01-13T08:36:05.578Z,44.80
2023-01-13T08:39:11.262Z,52.28
2023-01-13T08:42:16.806Z,50.08
2023-01-13T08:45:22.346Z,54.50
2023-01-13T08:48:31.367Z,52.92
2023-01-13T08:51:36.942Z,51.00
2023-01-13T08:54:42.452Z,55.97
2023-01-13T08:57:48.009Z,59.95
2023-01-13T09:00:54.239Z,57.47
2023-01-13T09:04:00.089Z,49.53
2023-01-13T09:07:05.672Z,57.22
2023-01-13T09:10:11.468Z,48.90
2023-01-13T09:13:17.580Z,63.35
2023-01-13T09:16:23.327Z,47.65
2023-01-13T09:19:29.459Z,51.13
2023-01-13T09:22:37.832Z,54.03
2023-01-13T09:25:43.310Z,48.72
2023-01-13T09:28:49.015Z,45.17
2023-01-13T09:31:55.134Z,43.80
2023-01-13T09:35:00.885Z,41.20
2023-01-13T09:38:07.407Z,37.30
2023-01-13T09:41:38.455Z,44.72
2023-01-13T09:45:06.274Z,45.75
2023-01-13T09:48:32.924Z,36.08
2023-01-13T09:51:51.756Z,36.08
2023-01-13T09:55:20.028Z,41.53
2023-01-13T09:58:25.796Z,36.13
2023-01-13T10:01:46.423Z,43.55
2023-01-13T10:05:23.224Z,38.17
2023-01-13T10:08:45.008Z,40.40
2023-01-13T10:12:11.542Z,39.90
2023-01-13T10:15:23.436Z,41.92
2023-01-13T10:18:37.453Z,39.90
2023-01-13T10:22:09.362Z,42.03
2023-01-13T10:25:42.180Z,42.50
2023-01-13T10:28:56.226Z,43.42
2023-01-13T10:32:01.900Z,38.22
2023-01-13T10:35:08.980Z,39.03
2023-01-13T10:38:21.927Z,39.30
2023-01-13T10:41:28.422Z,36.55
2023-01-13T10:44:51.173Z,37.85
2023-01-13T10:48:08.267Z,40.40
2023-01-13T10:51:44.545Z,46.70
2023-01-13T10:54:54.455Z,38.72
2023-01-13T10:58:19.734Z,45.13
2023-01-13T11:01:27.682Z,41.60
2023-01-13T11:04:37.774Z,39.40
2023-01-13T11:07:54.442Z,45.15
2023-01-13T11:11:00.213Z,38.30
2023-01-13T11:14:31.674Z,43.78
2023-01-13T11:17:46.614Z,41.85
2023-01-13T11:20:55.679Z,49.75
2023-01-13T11:24:19.261Z,43.45
2023-01-13T11:27:44.781Z,43.05
2023-01-13T11:31:24.813Z,37.50
2023-01-13T11:34:37.547Z,48.33
2023-01-13T11:37:50.546Z,37.55
2023-01-13T11:41:13.240Z,42.05
2023-01-13T11:44:25.866Z,38.33
2023-01-13T11:47:32.926Z,38.55
2023-01-13T11:50:43.454Z,44.05
2023-01-13T11:54:14.951Z,40.38
2023-01-13T11:57:37.781Z,40.97
2023-01-13T12:00:57.999Z,39.88
2023-01-13T12:04:33.488Z,38.08
2023-01-13T12:08:12.807Z,35.10
2023-01-13T12:11:32.868Z,39.55
2023-01-13T12:15:07.266Z,38.97
2023-01-13T12:18:30.708Z,40.35
2023-01-13T12:21:57.889Z,37.05
2023-01-13T12:25:13.772Z,36.88
2023-01-13T12:28:43.725Z,38.90
2023-01-13T12:31:51.577Z,39.15
2023-01-13T12:35:15.722Z,40.97
2023-01-13T12:38:56.916Z,42.35
2023-01-13T12:42:52.550Z,39.63
2023-01-13T12:46:19.285Z,38.20
2023-01-13T12:49:31.170Z,37.28
2023-01-13T12:52:45.814Z,45.00
2023-01-13T12:55:53.358Z,34.92
2023-01-13T12:59:21.918Z,41.83
2023-01-13T13:02:29.147Z,36.83
2023-01-13T13:05:44.774Z,39.50
2023-01-13T13:09:03.709Z,37.33
2023-01-13T13:12:49.590Z,32.13
2023-01-13T13:16:26.472Z,39.17
2023-01-13T13:19:31.548Z,41.53
2023-01-13T13:22:43.128Z,33.47
2023-01-13T13:26:13.955Z,33.55
2023-01-13T13:29:28.029Z,32.33
2023-01-13T13:32:39.751Z,34.60
2023-01-13T13:36:15.503Z,35.80
2023-01-13T13:39:45.326Z,31.20
2023-01-13T13:43:16.171Z,32.45
2023-01-13T13:46:48.047Z,39.30
2023-01-13T13:49:57.217Z,29.23
2023-01-13T13:53:06.439Z,32.17
2023-01-13T13:56:22.239Z,27.52
2023-01-13T13:59:33.911Z,30.27
2023-01-13T14:02:39.410Z,31.02
2023-01-13T14:06:04.684Z,28.45
2023-01-13T14:09:17.958Z,32.47
2023-01-13T14:12:26.199Z,28.88
2023-01-13T14:15:39.252Z,32.58
2023-01-13T14:18:48.845Z,30.55
2023-01-13T14:21:54.602Z,27.52
2023-01-13T14:25:02.113Z,29.73
2023-01-13T14:28:13.271Z,36.13
2023-01-13T14:31:19.845Z,26.63
2023-01-13T14:34:31.501Z,30.52
2023-01-13T14:37:42.016Z,34.47
2023-01-13T14:40:47.534Z,32.40
2023-01-13T14:43:57.983Z,30.55
2023-01-13T14:47:20.102Z,26.48
2023-01-13T14:50:31.748Z,27.70
2023-01-13T14:53:37.201Z,31.67
2023-01-13T14:56:55.369Z,60.67
2023-01-13T15:00:16.014Z,76.65
2023-01-13T15:03:21.994Z,79.90
2023-01-13T15:06:27.308Z,82.90
2023-01-13T15:09:55.299Z,76.18
2023-01-13T15:13:04.828Z,70.00
2023-01-13T15:16:25.297Z,75.03
2023-01-13T15:19:31.531Z,74.95
2023-01-13T15:22:37.292Z,98.53
2023-01-13T15:25:44.331Z,99.68
2023-01-13T15:28:50.733Z,101.00
2023-01-13T15:31:56.019Z,68.07
2023-01-13T15:35:01.067Z,60.75
2023-01-13T15:38:12.493Z,49.50
2023-01-13T15:41:17.704Z,44.25
2023-01-13T15:44:41.751Z,44.30
2023-01-13T15:47:48.389Z,37.40
2023-01-13T15:50:54.013Z,38.45
2023-01-13T15:54:02.841Z,45.22
2023-01-13T15:57:38.271Z,39.47
2023-01-13T16:00:43.718Z,36.35
2023-01-13T16:03:49.099Z,38.08
2023-01-13T16:06:55.636Z,38.03
2023-01-13T16:10:02.040Z,44.10
2023-01-13T16:13:07.553Z,41.85
2023-01-13T16:16:39.032Z,46.78
2023-01-13T16:19:45.353Z,43.40
2023-01-13T16:22:50.496Z,44.22
2023-01-13T16:25:55.860Z,40.38
2023-01-13T16:29:01.204Z,46.80
2023-01-13T16:32:06.504Z,46.47
2023-01-13T16:35:11.446Z,40.20
2023-01-13T16:38:17.830Z,44.78
2023-01-13T16:41:25.212Z,48.50
2023-01-13T16:44:30.397Z,57.72
2023-01-13T16:47:36.015Z,60.45
2023-01-13T16:50:42.706Z,60.10
2023-01-13T16:53:48.684Z,46.80
2023-01-13T16:56:54.194Z,49.90
2023-01-13T16:59:59.369Z,70.00
2023-01-13T17:03:05.397Z,72.00
2023-01-13T17:06:12.403Z,68.18
2023-01-13T17:09:23.666Z,75.32
2023-01-13T17:12:28.731Z,74.37
2023-01-13T17:15:34.523Z,67.10
2023-01-13T17:18:40.451Z,65.75
2023-01-13T17:21:47.316Z,52.25
2023-01-13T17:24:52.656Z,52.00
2023-01-13T17:27:58.205Z,54.80
2023-01-13T17:31:03.659Z,46.53
2023-01-13T17:34:11.000Z,50.22
2023-01-13T17:37:16.511Z,46.50
2023-01-13T17:40:21.925Z,44.20
2023-01-13T17:43:27.462Z,46.35
2023-01-13T17:46:32.925Z,45.65
2023-01-13T17:49:38.587Z,64.07
2023-01-13T17:52:44.073Z,52.95
2023-01-13T17:55:51.908Z,53.33
2023-01-13T17:58:58.884Z,50.58
2023-01-13T18:02:05.148Z,57.55
2023-01-13T18:05:10.300Z,52.50
2023-01-13T18:08:16.046Z,55.65
2023-01-13T18:11:22.889Z,59.08
2023-01-13T18:14:28.815Z,56.03
2023-01-13T18:17:34.739Z,57.78
2023-01-13T18:20:58.627Z,64.25
2023-01-13T18:24:23.122Z,60.63
2023-01-13T18:27:35.508Z,67.68
2023-01-13T18:30:41.299Z,66.20
2023-01-13T18:33:47.185Z,62.78
2023-01-13T18:36:52.595Z,67.90
2023-01-13T18:39:58.779Z,73.50
2023-01-13T18:43:04.439Z,74.40
2023-01-13T18:46:09.829Z,73.40
2023-01-13T18:49:15.380Z,70.88
2023-01-13T18:52:24.180Z,70.78
2023-01-13T18:55:29.855Z,69.82
2023-01-13T18:58:35.515Z,73.63
2023-01-13T19:01:42.005Z,73.13
2023-01-13T19:04:48.033Z,69.38
2023-01-13T19:07:53.843Z,74.32
2023-01-13T19:11:07.698Z,70.72
2023-01-13T19:14:34.358Z,74.85
2023-01-13T19:17:40.012Z,66.90
2023-01-13T19:20:45.773Z,66.22
2023-01-13T19:23:54.047Z,69.80
2023-01-13T19:26:59.333Z,72.05
2023-01-13T19:30:06.479Z,72.03
2023-01-13T19:33:11.652Z,74.45
2023-01-13T19:36:17.012Z,72.78
2023-01-13T19:39:22.700Z,77.28
2023-01-13T19:42:46.779Z,69.68
2023-01-13T19:45:52.783Z,68.85
2023-01-13T19:48:58.143Z,74.15
2023-01-13T19:52:03.665Z,74.22
2023-01-13T19:55:12.028Z,74.22
2023-01-13T19:58:20.933Z,69.97
2023-01-13T20:01:35.413Z,72.38
2023-01-13T20:04:44.846Z,82.53
2023-01-13T20:07:51.260Z,78.97
2023-01-13T20:11:16.557Z,83.55
2023-01-13T20:14:22.161Z,86.80
2023-01-13T20:17:28.218Z,91.93
2023-01-13T20:20:34.547Z,88.78
2023-01-13T20:23:40.418Z,92.35
2023-01-13T20:26:48.705Z,84.82
2023-01-13T20:29:55.153Z,80.53
2023-01-13T20:33:02.331Z,75.47
2023-01-13T20:36:18.180Z,80.57
2023-01-13T20:39:30.776Z,66.45
2023-01-13T20:42:46.724Z,69.57
2023-01-13T20:45:53.982Z,75.22
2023-01-13T20:49:01.329Z,74.13
2023-01-13T20:52:12.343Z,76.85
2023-01-13T20:55:19.017Z,67.45
2023-01-13T20:58:26.799Z,68.95
2023-01-13T21:01:34.808Z,68.28
2023-01-13T21:04:48.086Z,74.45
2023-01-13T21:07:55.335Z,63.17
2023-01-13T21:11:12.169Z,60.90
2023-01-13T21:14:39.230Z,61.25
2023-01-13T21:18:05.973Z,60.17
2023-01-13T21:21:13.197Z,62.92
2023-01-13T21:24:19.903Z,64.15
2023-01-13T21:27:26.409Z,59.95
2023-01-13T21:30:33.738Z,67.40
2023-01-13T21:33:39.232Z,55.75
2023-01-13T21:36:44.772Z,58.75
2023-01-13T21:39:50.349Z,61.75
2023-01-13T21:43:19.260Z,62.00
2023-01-13T21:46:43.539Z,51.63
2023-01-13T21:49:49.596Z,61.78
2023-01-13T21:52:56.451Z,58.90
2023-01-13T21:56:01.903Z,58.30
2023-01-13T21:59:07.466Z,66.95
2023-01-13T22:02:29.391Z,50.95
2023-01-13T22:05:35.204Z,63.55
2023-01-13T22:08:40.512Z,58.15
2023-01-13T22:11:46.039Z,54.92
2023-01-13T22:14:52.507Z,58.25
2023-01-13T22:17:59.737Z,58.33
2023-01-13T22:21:06.262Z,60.67
2023-01-13T22:24:12.206Z,62.97
2023-01-13T22:27:26.163Z,59.90
2023-01-13T22:30:32.796Z,66.72
2023-01-13T22:33:39.319Z,73.10
2023-01-13T22:36:44.705Z,70.40
2023-01-13T22:39:50.674Z,75.20
2023-01-13T22:42:56.383Z,76.45
2023-01-13T22:46:08.059Z,66.07
2023-01-13T22:49:15.837Z,71.82
2023-01-13T22:52:22.964Z,62.67
2023-01-13T22:55:28.889Z,69.32
2023-01-13T22:58:34.859Z,66.25
2023-01-13T23:01:42.392Z,82.97
2023-01-13T23:04:48.279Z,67.47
2023-01-13T23:07:54.118Z,71.82
2023-01-13T23:11:16.244Z,66.65
2023-01-13T23:14:21.566Z,68.00
2023-01-13T23:17:27.210Z,71.20
2023-01-13T23:20:33.566Z,73.40
2023-01-13T23:23:39.986Z,66.43
2023-01-13T23:26:45.381Z,71.78
2023-01-13T23:29:50.936Z,69.65
2023-01-13T23:32:56.318Z,71.55
2023-01-13T23:36:05.519Z,70.40
2023-01-13T23:39:10.921Z,67.30
2023-01-13T23:42:16.425Z,64.00
2023-01-13T23:45:21.549Z,64.25
2023-01-13T23:48:26.920Z,68.47
2023-01-13T23:51:32.754Z,74.97
2023-01-13T23:54:38.227Z,68.63
2023-01-13T23:57:44.385Z,69.32
